KCEF/CEF METAR and TAF weather

Enter ICAO airport designator
Station Type Date Time Source
KCEF METAR 2020/04/09 19:04 UTC NOAA

KCEF 091904Z 31010KT 4SM -RA BR SCT005 BKN035 OVC065 09/09 A2909 RMK AO2A SLP858


Station Type Date Time Source
KCEF Decoded METAR 2020/04/09 19:04 UTC NOAA

Chicopee Falls / Westover Air Force Base, MA, United States (KCEF) 42-12N 072-32W 75M
Apr 09, 2020 - 03:04 PM EDT / 2020.04.09 1904 UTC
Wind: from the NW (310 degrees) at 12 MPH (10 KT):0
Visibility: 4 mile(s):0
Sky conditions: overcast
Weather: light rain; mist
Temperature: 48 F (9 C)
Dew Point: 48 F (9 C)
Relative Humidity: 100%
Pressure (altimeter): 29.09 in. Hg (985 hPa)
ob: KCEF 091904Z 31010KT 4SM -RA BR SCT005 BKN035 OVC065 09/09 A2909 RMK AO2A SLP858
cycle: 19

Station Type Date Time Source
KCEF TAF 2020/04/09 18:10 UTC NOAA

TAF KCEF 091800Z 0918/1024 18012KT 9000 -RA BR SCT007 OVC015 WS015/17040KT 620509 540154 QNH2903INS
TEMPO 0918/0920 21012G22KT 2400 TSRA BKN007 OVC015CB
BECMG 0919/0920 28025G40KT 9999 NSW SCT035 BKN120 530006 QNH2901INS
BECMG 0923/0924 28015G25KT 9999 FEW045 520004 QNH2911INS
BECMG 1012/1013 28025G35KT 9999 -SHRA BKN045 BKN090 610456 530006 QNH2910INS
BECMG 1022/1023 30015G25KT 9999 NSW SCT040 SCT080 520004 QNH2935INS TX12/0921Z TN03/1010Z

Example: see airport list